Time;durP1;ratioP1;P1;durP2;ratioP2;P2;SDS_P1;SDS_P2;PMS_P1;PMS_P2;Temp;Humidity;BMP_temperature;BMP_pressure;BME280_temperature;BME280_humidity;BME280_pressure;Samples;Min_cycle;Max_cycle;Signal;HPM_P1;HPM_P2
2022/08/12 00:44:04;;;;;;;8.43;6.22;;;13.30;99.90;;;;;;10357109;28;20136;-78
2022/08/12 00:49:06;;;;;;;8.30;5.82;;;13.10;99.90;;;;;;10344710;28;20048;-78
2022/08/12 00:54:07;;;;;;;7.50;5.30;;;13.00;99.90;;;;;;10347234;28;20525;-78
2022/08/12 00:59:08;;;;;;;7.63;5.70;;;13.00;99.90;;;;;;10340048;28;20045;-78
2022/08/12 01:14:53;;;;;;;6.85;5.68;;;13.20;99.90;;;;;;10329176;28;20042;-78
2022/08/12 01:19:56;;;;;;;10.27;6.32;;;13.10;99.90;;;;;;10340261;28;20129;-79
2022/08/12 01:25:11;;;;;;;8.15;6.20;;;13.10;99.90;;;;;;10333571;28;20074;-78
2022/08/12 01:30:13;;;;;;;10.10;5.93;;;13.10;99.90;;;;;;10328162;28;20042;-78
2022/08/12 01:35:16;;;;;;;7.53;5.78;;;13.20;99.90;;;;;;10341987;28;20490;-78
2022/08/12 01:40:22;;;;;;;8.80;5.65;;;13.20;99.90;;;;;;10339487;28;20053;-78
2022/08/12 01:45:24;;;;;;;7.78;6.00;;;13.20;99.90;;;;;;10333831;28;20101;-77
2022/08/12 01:50:40;;;;;;;10.55;6.53;;;13.20;99.90;;;;;;10326430;28;20034;-78
2022/08/12 01:55:44;;;;;;;11.05;6.65;;;13.20;99.90;;;;;;10323954;28;20497;-79
2022/08/12 02:01:02;;;;;;;10.32;6.57;;;13.30;99.90;;;;;;10327019;28;20047;-78
2022/08/12 02:11:47;;;;;;;7.60;5.95;;;13.20;99.90;;;;;;10342027;28;20393;-79
2022/08/12 02:17:25;;;;;;;11.43;6.95;;;13.20;99.90;;;;;;10324583;28;20034;-78
2022/08/12 02:22:33;;;;;;;11.55;6.90;;;13.10;99.90;;;;;;10342448;28;20022;-78
2022/08/12 02:27:45;;;;;;;11.52;6.85;;;13.10;99.90;;;;;;10338872;28;20022;-79
2022/08/12 02:32:49;;;;;;;11.60;6.90;;;13.00;99.90;;;;;;10331922;28;20037;-77
2022/08/12 02:37:53;;;;;;;10.52;6.82;;;13.00;99.90;;;;;;10328585;28;20062;-78
2022/08/12 02:43:17;;;;;;;10.73;6.55;;;13.10;99.90;;;;;;10329680;28;20062;-77
2022/08/12 02:48:29;;;;;;;8.95;6.90;;;13.10;99.90;;;;;;10333408;28;20165;-78
2022/08/12 02:53:32;;;;;;;8.73;6.68;;;13.00;99.90;;;;;;10318536;28;20169;-79
2022/08/12 02:58:35;;;;;;;8.80;6.90;;;13.00;99.90;;;;;;10328775;28;20092;-77
2022/08/12 03:03:37;;;;;;;11.02;7.07;;;13.10;99.90;;;;;;10324526;28;20490;-79
2022/08/12 03:08:41;;;;;;;12.05;7.72;;;13.10;99.90;;;;;;10344067;28;20522;-78
2022/08/12 03:13:54;;;;;;;13.02;8.50;;;13.10;99.90;;;;;;10325392;28;20138;-78
2022/08/12 03:18:55;;;;;;;10.13;8.20;;;13.10;99.90;;;;;;10329270;28;20046;-79
2022/08/12 03:23:59;;;;;;;15.07;8.57;;;13.10;99.90;;;;;;10330364;28;20035;-79
2022/08/12 03:29:03;;;;;;;13.70;8.95;;;13.00;99.90;;;;;;10340209;28;20533;-77
2022/08/12 03:34:07;;;;;;;13.63;8.90;;;13.00;99.90;;;;;;10322986;28;20031;-78
2022/08/12 03:39:23;;;;;;;11.65;8.57;;;12.90;99.90;;;;;;10339216;28;20085;-78
2022/08/12 04:00:45;;;;;;;14.48;9.95;;;12.90;99.90;;;;;;10354893;28;20049;-78
2022/08/12 04:05:48;;;;;;;14.52;10.13;;;12.90;99.90;;;;;;10357070;28;20027;-78
2022/08/12 04:16:09;;;;;;;12.70;9.35;;;13.10;99.90;;;;;;10359987;28;20493;-81
2022/08/12 04:21:10;;;;;;;13.30;9.55;;;13.10;99.90;;;;;;10353355;28;20121;-78
2022/08/12 04:26:11;;;;;;;12.68;9.13;;;13.20;99.90;;;;;;10347398;28;20038;-78
2022/08/12 04:31:13;;;;;;;11.40;9.00;;;13.20;99.90;;;;;;10361677;28;20034;-80
2022/08/12 04:36:15;;;;;;;14.30;9.50;;;13.20;99.90;;;;;;10359160;28;20053;-81
2022/08/12 04:41:17;;;;;;;13.45;9.27;;;13.30;99.90;;;;;;10350255;28;20052;-81
2022/08/12 04:46:19;;;;;;;16.58;9.32;;;13.50;99.90;;;;;;10355687;28;20041;-81
2022/08/12 04:51:21;;;;;;;16.95;9.75;;;13.60;99.90;;;;;;10361765;28;20058;-81
2022/08/12 04:56:22;;;;;;;10.90;8.90;;;13.70;99.90;;;;;;10330045;28;20034;-82
2022/08/12 05:01:30;;;;;;;13.80;9.18;;;13.80;99.90;;;;;;10364425;28;20470;-81
2022/08/12 05:06:37;;;;;;;14.25;9.48;;;13.90;99.90;;;;;;10360382;28;20470;-82
2022/08/12 05:11:44;;;;;;;14.38;9.40;;;14.10;99.90;;;;;;10354864;28;20061;-80
2022/08/12 05:16:46;;;;;;;15.38;9.48;;;14.20;99.90;;;;;;10337944;28;20038;-81
2022/08/12 05:21:48;;;;;;;11.40;8.30;;;14.40;99.90;;;;;;10341472;28;20039;-81
2022/08/12 05:26:51;;;;;;;13.35;8.27;;;14.50;99.90;;;;;;10358727;28;20033;-81
2022/08/12 05:31:55;;;;;;;9.52;7.60;;;14.80;99.90;;;;;;10356616;28;20022;-82
2022/08/12 05:36:56;;;;;;;11.13;7.90;;;14.90;99.90;;;;;;10355811;28;20021;-81
2022/08/12 05:41:57;;;;;;;11.15;7.85;;;15.20;99.90;;;;;;10339305;28;20030;-81
2022/08/12 05:46:58;;;;;;;10.70;7.97;;;15.50;99.90;;;;;;10362433;28;20050;-83
2022/08/12 05:51:58;;;;;;;12.65;7.90;;;15.70;99.90;;;;;;10363976;28;20130;-82
2022/08/12 05:56:59;;;;;;;10.27;7.82;;;15.90;99.90;;;;;;10364208;28;20022;-81
2022/08/12 06:02:06;;;;;;;9.63;7.60;;;16.10;99.90;;;;;;10363292;28;20041;-82
2022/08/12 06:07:07;;;;;;;13.07;8.77;;;16.30;99.90;;;;;;10364482;28;20498;-81
2022/08/12 06:12:08;;;;;;;11.88;8.40;;;16.50;99.90;;;;;;10363256;28;20025;-82
2022/08/12 06:17:08;;;;;;;11.23;7.32;;;16.60;99.90;;;;;;10343439;28;20583;-81
2022/08/12 06:22:10;;;;;;;8.98;6.78;;;16.80;99.90;;;;;;10353208;28;20033;-81
2022/08/12 06:27:13;;;;;;;11.50;7.72;;;17.00;99.90;;;;;;10357245;28;20033;-82
2022/08/12 06:32:15;;;;;;;13.77;7.95;;;17.20;99.90;;;;;;10363166;28;20065;-84
2022/08/12 06:37:17;;;;;;;9.38;7.22;;;17.40;99.90;;;;;;10357654;28;20052;-82
2022/08/12 06:47:37;;;;;;;12.25;7.30;;;17.90;99.90;;;;;;10361968;28;20058;-82
2022/08/12 06:52:38;;;;;;;10.30;7.10;;;18.10;99.90;;;;;;10362370;28;20030;-82
2022/08/12 06:57:53;;;;;;;10.35;6.38;;;18.30;99.90;;;;;;10362453;28;20026;-84
2022/08/12 07:02:55;;;;;;;10.50;6.05;;;18.60;99.90;;;;;;10367099;28;20053;-83
2022/08/12 07:07:58;;;;;;;10.40;6.40;;;19.00;99.90;;;;;;10371708;28;20032;-81
2022/08/12 07:13:01;;;;;;;7.93;5.97;;;19.30;99.90;;;;;;10370699;28;20037;-81
2022/08/12 07:23:04;;;;;;;8.38;6.03;;;20.00;99.90;;;;;;10368068;28;20053;-81
2022/08/12 07:28:18;;;;;;;7.32;5.18;;;20.90;99.90;;;;;;10371351;28;20498;-83
2022/08/12 07:33:21;;;;;;;5.10;4.60;;;21.00;99.90;;;;;;10371172;28;20037;-82
2022/08/12 07:38:26;;;;;;;7.75;4.88;;;21.30;99.90;;;;;;10370353;28;20102;-82
2022/08/12 07:43:28;;;;;;;8.50;4.60;;;21.50;99.90;;;;;;10367462;28;20357;-82
2022/08/12 07:48:39;;;;;;;4.55;3.92;;;21.70;99.90;;;;;;10369916;28;20437;-83
2022/08/12 07:53:41;;;;;;;5.40;4.57;;;22.00;97.00;;;;;;10370192;28;20022;-85
2022/08/12 07:58:42;;;;;;;7.32;4.40;;;22.10;98.10;;;;;;10369629;28;20029;-82
2022/08/12 08:09:05;;;;;;;5.38;4.85;;;22.40;96.10;;;;;;10369781;28;20034;-83
2022/08/12 08:14:07;;;;;;;5.00;4.30;;;22.80;94.60;;;;;;10344949;28;20021;-83
2022/08/12 08:19:18;;;;;;;5.78;4.28;;;22.90;93.50;;;;;;10368992;28;20045;-81
2022/08/12 08:24:18;;;;;;;5.30;3.90;;;23.10;92.40;;;;;;10368072;28;20480;-84
2022/08/12 08:29:20;;;;;;;4.05;3.72;;;23.50;92.90;;;;;;10368690;28;20040;-85
2022/08/12 08:34:21;;;;;;;4.80;3.40;;;23.70;90.70;;;;;;10368879;28;20033;-83
2022/08/12 08:39:26;;;;;;;4.03;3.47;;;24.10;90.20;;;;;;10368304;28;20500;-83
2022/08/12 08:44:26;;;;;;;5.18;3.80;;;24.50;87.70;;;;;;10363084;28;20127;-83
2022/08/12 08:49:27;;;;;;;4.05;3.40;;;24.10;83.90;;;;;;10332502;28;20026;-82
2022/08/12 08:54:32;;;;;;;5.95;3.78;;;24.60;85.50;;;;;;10354776;28;20032;-83
2022/08/12 08:59:33;;;;;;;4.32;3.92;;;24.70;83.10;;;;;;10343989;28;20398;-85
2022/08/12 09:04:34;;;;;;;3.92;3.35;;;25.20;84.10;;;;;;10365016;28;20030;-83
2022/08/12 09:09:36;;;;;;;5.07;3.20;;;25.30;80.50;;;;;;10353198;28;20030;-81
2022/08/12 09:14:41;;;;;;;5.18;3.38;;;24.80;79.50;;;;;;10352956;28;20085;-83
2022/08/12 09:19:42;;;;;;;5.13;3.60;;;24.60;77.70;;;;;;10357410;28;20115;-82
2022/08/12 09:24:42;;;;;;;4.10;3.60;;;24.40;81.20;;;;;;10336815;28;20017;-82
2022/08/12 09:29:44;;;;;;;3.33;3.03;;;24.40;79.90;;;;;;10357793;28;20038;-83
2022/08/12 09:34:45;;;;;;;4.93;3.30;;;24.40;81.50;;;;;;10362181;28;20029;-84
2022/08/12 09:39:45;;;;;;;3.85;3.17;;;24.40;80.40;;;;;;10340469;28;20048;-83
2022/08/12 09:50:06;;;;;;;3.25;2.75;;;25.10;79.50;;;;;;10355537;28;20537;-81
2022/08/12 09:55:08;;;;;;;3.85;3.00;;;24.80;77.50;;;;;;10360150;28;20469;-83
2022/08/12 10:00:14;;;;;;;5.03;3.22;;;24.80;79.20;;;;;;10344947;28;20113;-81
2022/08/12 10:05:14;;;;;;;3.97;3.22;;;25.30;77.60;;;;;;10349551;28;20665;-84
2022/08/12 10:10:15;;;;;;;4.35;3.30;;;25.70;77.90;;;;;;10349642;28;20163;-81
2022/08/12 10:15:16;;;;;;;3.67;2.95;;;25.50;74.50;;;;;;10358248;28;20026;-81
2022/08/12 10:20:17;;;;;;;3.22;2.90;;;25.30;75.90;;;;;;10355205;28;20494;-82
2022/08/12 10:30:37;;;;;;;3.53;2.70;;;26.70;75.70;;;;;;10329710;28;20663;-81
2022/08/12 10:35:40;;;;;;;3.70;3.10;;;26.60;72.10;;;;;;10326017;28;20026;-81
2022/08/12 10:46:00;;;;;;;3.42;2.80;;;26.20;71.70;;;;;;10340615;28;20054;-81
2022/08/12 10:51:04;;;;;;;2.92;2.50;;;26.50;73.00;;;;;;10326681;28;20038;-82
2022/08/12 10:56:07;;;;;;;4.55;2.38;;;27.30;69.20;;;;;;10337311;28;20026;-81
2022/08/12 11:01:09;;;;;;;4.57;2.83;;;27.70;70.50;;;;;;10320507;28;20826;-82
2022/08/12 11:06:10;;;;;;;4.00;2.53;;;27.80;69.60;;;;;;10335133;28;20688;-80
2022/08/12 11:11:16;;;;;;;2.50;2.30;;;28.00;65.00;;;;;;10336216;28;20022;-82
2022/08/12 11:16:16;;;;;;;3.72;2.17;;;28.20;67.60;;;;;;10341317;28;20035;-80
2022/08/12 11:21:17;;;;;;;4.18;2.25;;;28.70;65.10;;;;;;10339628;28;20038;-82
2022/08/12 11:26:18;;;;;;;3.53;2.50;;;29.00;65.70;;;;;;10332495;28;20370;-80
2022/08/12 11:31:18;;;;;;;3.25;2.80;;;29.40;62.10;;;;;;10314933;28;20519;-82
2022/08/12 11:36:19;;;;;;;3.42;2.47;;;28.90;61.40;;;;;;10327561;28;20022;-82
2022/08/12 11:41:20;;;;;;;3.00;2.70;;;28.20;65.40;;;;;;10338085;28;20033;-82
2022/08/12 11:46:21;;;;;;;4.15;2.70;;;27.80;63.30;;;;;;10351635;28;20104;-81
2022/08/12 11:51:21;;;;;;;3.30;3.00;;;27.00;66.00;;;;;;10348273;28;20083;-81
2022/08/12 11:56:23;;;;;;;3.55;3.03;;;26.30;67.40;;;;;;10369215;28;20049;-81
2022/08/12 12:01:24;;;;;;;4.00;2.67;;;26.00;69.30;;;;;;10367540;28;20030;-81
2022/08/12 12:06:24;;;;;;;3.42;3.13;;;26.30;70.60;;;;;;10367265;28;20030;-82
2022/08/12 12:11:25;;;;;;;3.78;2.97;;;26.70;68.10;;;;;;10367572;28;20040;-82
2022/08/12 12:16:26;;;;;;;4.03;3.10;;;26.80;66.20;;;;;;10363203;28;20046;-79
2022/08/12 12:21:27;;;;;;;3.45;3.15;;;26.00;68.20;;;;;;10364049;28;20049;-83
2022/08/12 12:26:28;;;;;;;3.50;2.88;;;25.60;70.20;;;;;;10368703;28;20026;-81
2022/08/12 12:31:28;;;;;;;3.10;2.75;;;26.30;72.10;;;;;;10353701;28;20095;-81
2022/08/12 12:36:29;;;;;;;4.45;3.33;;;26.60;68.40;;;;;;10365269;28;20032;-80
2022/08/12 12:41:29;;;;;;;3.28;2.55;;;26.70;70.00;;;;;;10360850;28;20057;-80
2022/08/12 12:46:30;;;;;;;3.53;3.03;;;27.30;67.00;;;;;;10323868;28;20046;-83
2022/08/12 12:51:31;;;;;;;5.22;2.70;;;27.80;65.10;;;;;;10302454;28;20046;-81
2022/08/12 12:56:34;;;;;;;3.13;2.72;;;28.00;66.90;;;;;;10317433;28;20036;-81
2022/08/12 13:01:38;;;;;;;4.25;3.10;;;27.70;64.80;;;;;;10339841;28;20030;-81
2022/08/12 13:06:40;;;;;;;3.35;2.50;;;27.40;63.60;;;;;;10310810;28;20022;-82
2022/08/12 13:12:05;;;;;;;4.38;2.88;;;27.10;65.50;;;;;;10310837;28;20096;-81
2022/08/12 13:17:08;;;;;;;3.35;2.70;;;27.60;61.90;;;;;;10335076;28;20696;-80
2022/08/12 13:22:18;;;;;;;3.50;2.38;;;28.10;62.60;;;;;;10326156;28;20022;-79
2022/08/12 13:27:19;;;;;;;5.97;2.75;;;27.50;62.40;;;;;;10330209;28;20026;-79
2022/08/12 13:32:20;;;;;;;3.72;2.78;;;26.50;63.70;;;;;;10329830;28;20026;-79
2022/08/12 13:37:23;;;;;;;3.10;2.80;;;26.30;64.20;;;;;;10329297;28;20022;-80
2022/08/12 13:42:24;;;;;;;5.22;2.97;;;26.30;64.60;;;;;;10337396;28;20049;-82
2022/08/12 13:47:24;;;;;;;3.13;1.90;;;26.50;65.80;;;;;;10362427;28;20602;-82
2022/08/12 13:52:25;;;;;;;3.00;2.45;;;26.60;64.60;;;;;;10355136;28;20401;-80
2022/08/12 13:57:42;;;;;;;2.92;2.63;;;26.80;62.60;;;;;;10362042;28;20029;-82
2022/08/12 14:02:42;;;;;;;4.45;2.40;;;26.60;62.70;;;;;;10352184;28;20041;-80
2022/08/12 14:07:58;;;;;;;3.60;2.80;;;26.60;62.00;;;;;;10357130;28;20099;-80
2022/08/12 14:13:01;;;;;;;4.45;2.80;;;26.30;63.00;;;;;;10352285;28;20038;-79
2022/08/12 14:18:31;;;;;;;5.30;3.10;;;25.90;64.80;;;;;;10353156;28;20064;-80
2022/08/12 14:23:37;;;;;;;2.67;2.40;;;26.10;66.00;;;;;;10355291;28;20041;-82
2022/08/12 14:28:40;;;;;;;2.97;2.42;;;26.40;63.80;;;;;;10364039;28;20046;-81
2022/08/12 14:33:48;;;;;;;5.87;3.87;;;26.40;63.50;;;;;;10359122;28;20017;-81
2022/08/12 14:38:56;;;;;;;7.88;4.43;;;26.40;65.80;;;;;;10357355;28;20029;-82
2022/08/12 14:43:57;;;;;;;6.10;4.53;;;26.50;63.50;;;;;;10336475;28;20054;-81
2022/08/12 14:49:00;;;;;;;3.05;2.38;;;26.50;64.60;;;;;;10337763;28;20038;-83
2022/08/12 14:54:11;;;;;;;4.90;3.42;;;26.40;64.30;;;;;;10341989;28;20062;-82
2022/08/12 15:04:38;;;;;;;4.20;2.80;;;26.50;65.30;;;;;;10359374;28;20478;-83
2022/08/12 15:09:40;;;;;;;3.28;2.60;;;26.50;66.40;;;;;;10330113;28;20406;-83
2022/08/12 15:14:41;;;;;;;3.60;2.80;;;26.30;65.20;;;;;;10342952;28;20077;-83
2022/08/12 15:19:42;;;;;;;2.92;2.58;;;26.10;64.50;;;;;;10356798;28;20037;-82
2022/08/12 15:24:43;;;;;;;3.05;2.78;;;26.10;64.10;;;;;;10361346;28;20033;-82
2022/08/12 15:29:43;;;;;;;5.25;3.15;;;26.00;64.20;;;;;;10366821;28;20042;-82
2022/08/12 15:34:44;;;;;;;4.85;3.20;;;26.00;65.00;;;;;;10364969;28;20030;-84
2022/08/12 15:39:44;;;;;;;3.53;3.10;;;26.00;64.30;;;;;;10355527;28;20022;-84
2022/08/12 15:44:45;;;;;;;2.88;2.67;;;26.00;65.50;;;;;;10361915;28;20691;-84
2022/08/12 15:49:46;;;;;;;3.63;3.03;;;25.80;64.10;;;;;;10361794;28;20042;-85
2022/08/12 15:54:46;;;;;;;4.15;3.53;;;25.50;65.60;;;;;;10358730;28;20034;-84
2022/08/12 15:59:47;;;;;;;3.78;3.40;;;25.20;66.50;;;;;;10358157;28;20030;-86
2022/08/12 16:04:50;;;;;;;3.30;3.00;;;25.10;67.50;;;;;;10386891;23;20061;-86
2022/08/12 16:09:58;;;;;;;3.38;3.08;;;25.20;67.60;;;;;;10412161;28;20089;-86
2022/08/12 16:15:00;;;;;;;3.22;2.92;;;25.30;68.30;;;;;;10401402;28;20523;-85
2022/08/12 16:20:07;;;;;;;4.70;2.95;;;25.40;68.50;;;;;;10403131;28;20026;-85
2022/08/12 16:25:41;;;;;;;5.40;3.03;;;25.30;68.60;;;;;;10414951;28;20029;-85
2022/08/12 16:30:42;;;;;;;3.50;2.40;;;25.00;67.30;;;;;;10399593;28;20034;-85
2022/08/12 16:35:49;;;;;;;3.22;2.60;;;24.80;68.00;;;;;;10393477;28;20018;-85
2022/08/12 16:40:49;;;;;;;2.58;2.35;;;24.70;67.80;;;;;;10403002;28;20392;-86
2022/08/12 16:46:00;;;;;;;3.65;2.97;;;24.60;68.00;;;;;;10397023;28;20033;-86
2022/08/12 16:51:29;;;;;;;3.47;3.17;;;24.50;68.20;;;;;;10387032;28;20523;-86
2022/08/12 16:56:34;;;;;;;5.93;3.67;;;24.50;68.60;;;;;;10380190;28;20095;-87
2022/08/12 17:01:36;;;;;;;;;;;24.40;70.20;;;;;;10401265;28;20389;-86
2022/08/12 17:06:46;;;;;;;5.03;4.18;;;24.40;72.30;;;;;;10399087;28;19935;-87
2022/08/12 17:11:47;;;;;;;4.60;4.20;;;24.50;72.50;;;;;;10399540;28;20092;-86
2022/08/12 17:16:50;;;;;;;7.72;4.90;;;24.40;73.20;;;;;;10405341;28;20029;-87
2022/08/12 17:21:52;;;;;;;6.43;5.47;;;24.20;74.90;;;;;;10409099;28;20025;-87
2022/08/12 17:26:54;;;;;;;8.50;6.40;;;24.10;76.00;;;;;;10404907;28;20037;-88
2022/08/12 17:32:01;;;;;;;7.80;5.43;;;23.80;77.10;;;;;;10396548;28;20044;-87
2022/08/12 17:37:20;;;;;;;9.75;6.75;;;23.60;77.80;;;;;;10401642;28;20072;-88
2022/08/12 17:42:21;;;;;;;8.70;6.63;;;23.40;79.10;;;;;;10401500;28;20412;-87
2022/08/12 17:48:05;;;;;;;10.95;7.40;;;23.30;79.60;;;;;;10398301;28;20041;-87
2022/08/12 17:53:07;;;;;;;8.85;7.63;;;23.10;80.90;;;;;;10389144;28;20045;-87
2022/08/12 17:58:07;;;;;;;9.02;7.97;;;22.90;81.00;;;;;;10396523;28;20033;-87
2022/08/12 18:03:09;;;;;;;8.95;7.22;;;22.80;82.00;;;;;;10398649;28;20017;-87
2022/08/12 18:08:12;;;;;;;9.35;7.28;;;22.60;83.20;;;;;;10398303;28;20485;-87
2022/08/12 18:13:28;;;;;;;9.55;7.45;;;22.40;84.10;;;;;;10403342;28;20029;-86
2022/08/12 18:18:30;;;;;;;9.05;7.47;;;22.20;85.30;;;;;;10404883;28;20420;-86
2022/08/12 18:23:30;;;;;;;10.30;8.18;;;21.90;87.00;;;;;;10403425;28;20045;-87
2022/08/12 18:28:34;;;;;;;10.45;8.85;;;21.40;88.20;;;;;;10393409;28;20048;-86
2022/08/12 18:33:35;;;;;;;9.65;8.13;;;21.10;89.90;;;;;;10379079;28;20069;-87
2022/08/12 18:38:54;;;;;;;9.13;8.18;;;20.90;90.70;;;;;;10402472;28;20033;-87
2022/08/12 18:44:08;;;;;;;10.32;9.10;;;20.60;92.00;;;;;;10362188;28;20037;-85
2022/08/12 18:49:12;;;;;;;12.75;9.15;;;20.30;93.60;;;;;;10385161;28;20449;-84
2022/08/12 18:54:14;;;;;;;11.43;9.18;;;20.00;95.50;;;;;;10386241;28;20036;-86
2022/08/12 18:59:21;;;;;;;11.73;8.60;;;20.00;97.70;;;;;;10382521;28;20434;-85
2022/08/12 19:04:23;;;;;;;10.60;9.25;;;20.00;99.90;;;;;;10377609;28;20038;-85
2022/08/12 19:09:35;;;;;;;1999.90;999.90;;;19.80;99.90;;;;;;10391027;28;20037;-83
2022/08/12 19:14:39;;;;;;;12.30;7.13;;;19.70;99.90;;;;;;10397870;28;20421;-85
2022/08/12 19:19:41;;;;;;;7.85;4.63;;;19.70;99.90;;;;;;10402854;28;20393;-82
2022/08/12 19:30:04;;;;;;;1.92;1.92;;;19.90;99.90;;;;;;10395632;28;20080;-83
2022/08/12 19:35:06;;;;;;;109.95;31.17;;;19.90;99.90;;;;;;10390817;28;20060;-83
2022/08/12 19:40:07;;;;;;;11.25;9.23;;;19.60;99.90;;;;;;10362435;28;20136;-83
2022/08/12 19:45:09;;;;;;;1999.90;999.90;;;19.40;99.90;;;;;;10395184;28;20029;-82
2022/08/12 19:50:10;;;;;;;10.07;7.38;;;19.10;99.90;;;;;;10399114;28;20033;-82
2022/08/12 19:55:11;;;;;;;7.57;4.95;;;18.90;99.90;;;;;;10391747;28;20026;-82
2022/08/12 20:00:16;;;;;;;8.90;5.20;;;18.80;99.90;;;;;;10394887;28;20663;-82
2022/08/12 20:05:16;;;;;;;13.77;9.90;;;18.80;99.90;;;;;;10401400;28;20076;-82
2022/08/12 20:10:20;;;;;;;11.55;9.95;;;18.70;99.90;;;;;;10396161;28;20064;-82
2022/08/12 20:15:23;;;;;;;1999.90;999.90;;;18.70;99.90;;;;;;10404048;28;20029;-82
2022/08/12 20:20:24;;;;;;;2.42;2.42;;;18.70;99.90;;;;;;10399633;28;20026;-82
2022/08/12 20:25:25;;;;;;;324.27;292.42;;;18.80;99.90;;;;;;10401511;28;20434;-82
2022/08/12 20:30:26;;;;;;;103.47;15.77;;;19.00;99.90;;;;;;10404371;28;20032;-82
2022/08/12 20:35:28;;;;;;;5.60;2.28;;;19.00;99.90;;;;;;10403774;28;20033;-81
2022/08/12 20:40:29;;;;;;;12.88;9.63;;;19.00;99.90;;;;;;10407003;28;20516;-81
2022/08/12 20:45:29;;;;;;;12.32;9.13;;;19.00;99.90;;;;;;10406488;28;20063;-82
2022/08/12 20:50:30;;;;;;;12.23;9.43;;;19.00;99.90;;;;;;10408334;28;20037;-82
2022/08/12 20:55:32;;;;;;;12.45;8.88;;;18.90;99.90;;;;;;10404059;28;20083;-82
2022/08/12 21:00:32;;;;;;;13.90;10.52;;;18.80;99.90;;;;;;10402656;28;20116;-83
2022/08/12 21:10:53;;;;;;;15.10;11.20;;;18.60;99.90;;;;;;10402354;28;20049;-83
2022/08/12 21:15:54;;;;;;;13.68;10.65;;;18.40;99.90;;;;;;10404634;28;20033;-82
2022/08/12 21:20:55;;;;;;;14.05;10.80;;;18.20;99.90;;;;;;10409995;28;20038;-81
2022/08/12 21:25:55;;;;;;;14.65;11.52;;;18.20;99.90;;;;;;10396313;28;20061;-82
2022/08/12 21:30:56;;;;;;;14.48;11.32;;;18.20;99.90;;;;;;10402187;28;20641;-82
2022/08/12 21:35:56;;;;;;;15.23;10.85;;;18.20;99.90;;;;;;10400583;28;20496;-82
2022/08/12 21:40:57;;;;;;;18.10;11.07;;;18.20;99.90;;;;;;10406332;28;20045;-81
2022/08/12 21:45:58;;;;;;;17.55;11.18;;;18.20;99.90;;;;;;10403544;28;20033;-82
2022/08/12 21:50:59;;;;;;;18.98;11.48;;;18.20;99.90;;;;;;10400010;28;20033;-82
2022/08/12 21:56:00;;;;;;;15.50;11.75;;;18.00;99.90;;;;;;10398439;28;20386;-82
2022/08/12 22:01:02;;;;;;;17.42;12.73;;;17.70;99.90;;;;;;10391725;28;20037;-84
2022/08/12 22:06:22;;;;;;;16.52;12.25;;;17.40;99.90;;;;;;10405441;28;20060;-83
2022/08/12 22:11:23;;;;;;;16.77;12.02;;;17.30;99.90;;;;;;10405550;28;20037;-82
2022/08/12 22:16:24;;;;;;;16.23;12.02;;;17.30;99.90;;;;;;10404392;28;20029;-81
2022/08/12 22:21:24;;;;;;;19.63;13.13;;;17.40;99.90;;;;;;10388035;28;20068;-81
2022/08/12 22:26:25;;;;;;;17.13;12.75;;;17.20;99.90;;;;;;10403561;28;20037;-82
2022/08/12 22:31:26;;;;;;;16.77;12.85;;;17.20;99.90;;;;;;10403088;28;20037;-83
2022/08/12 22:36:27;;;;;;;18.73;12.80;;;17.10;99.90;;;;;;10405285;28;20044;-81
2022/08/12 22:51:52;;;;;;;16.25;13.15;;;17.00;99.90;;;;;;10404906;28;20807;-82
2022/08/12 22:56:56;;;;;;;17.23;12.60;;;17.10;99.90;;;;;;10404223;28;20033;-82
2022/08/12 23:01:57;;;;;;;17.75;12.73;;;17.10;99.90;;;;;;10398932;28;20056;-81
2022/08/12 23:06:58;;;;;;;17.90;13.00;;;17.10;99.90;;;;;;10403341;28;20108;-82
2022/08/12 23:12:01;;;;;;;18.45;13.02;;;17.00;99.90;;;;;;10402135;28;20088;-81
2022/08/12 23:17:01;;;;;;;16.90;12.23;;;16.90;99.90;;;;;;10401271;28;20909;-82
2022/08/12 23:22:04;;;;;;;17.60;12.52;;;16.90;99.90;;;;;;10403880;28;20033;-82
2022/08/12 23:32:25;;;;;;;17.35;12.73;;;16.80;99.90;;;;;;10402642;28;20136;-81
2022/08/12 23:37:26;;;;;;;16.52;12.63;;;16.80;99.90;;;;;;10401502;28;20033;-83
2022/08/12 23:42:28;;;;;;;18.08;13.10;;;16.70;99.90;;;;;;10403237;28;20041;-81
2022/08/12 23:47:28;;;;;;;19.00;12.95;;;16.70;99.90;;;;;;10409103;28;20039;-82
2022/08/12 23:52:29;;;;;;;19.55;13.15;;;16.70;99.90;;;;;;10410344;28;20045;-82
2022/08/12 23:57:30;;;;;;;19.33;12.52;;;16.70;99.90;;;;;;10410763;28;20481;-81
